METAR v bližini

 

LJLJ - Ljubljana/Brnik, Slovenia
Oddaljenost od postaje: W 41km
Podatki zajeti: 23/01/2019 07:30
Rahel sneg, Oblačno
Rahel sneg, Oblačno
 Veter iz smeri spremenljiv
Veter: spremenljiv 2 km/h
Temperatura: -4°C
Rosišče: -4°C
Vlažnost: 100%
Tlak: 1000 hPa
Stanje: Rahel sneg
Oblačnost: Oblačno
Vidljivost: 6 km
Podrobnosti o oblakih: Oblačno 366 m
2019/01/23 06:30 LJLJ 230630Z VRB01KT 6000 -SN OVC012 M04/M04 Q1000 R30/590195 NOSIG
LJMB - Maribor, Slovenia
Oddaljenost od postaje: NE 63km
Podatki zajeti: 23/01/2019 07:30
Meglica, Oblačno
Meglica, Oblačno
 Veter iz smeri NE
Veter: NE 7 km/h
Temperatura: -4°C
Občutek mraza zaradi vetra: -7°C
Rosišče: -6°C
Vlažnost: 86%
Tlak: 1002 hPa
Stanje: Meglica
Oblačnost: Oblačno
Vidljivost: 4 km
Podrobnosti o oblakih: Delno oblačno 213 m
Oblačno 701 m
2019/01/23 06:30 LJMB 230630Z 04004KT 010V080 4000 BR SCT007 OVC023 M04/M06 Q1002
 
LJPZ - Portoroz, Slovenia
Oddaljenost od postaje: SW 130km
Podatki zajeti: 23/01/2019 07:30
Oblačno
Oblačno
 Veter iz smeri spremenljiv
Veter: spremenljiv 2 km/h
Temperatura: 1°C
Rosišče: -1°C
Vlažnost: 87%
Tlak: 998 hPa
Oblačnost: Oblačno
Vidljivost: 10 km
Podrobnosti o oblakih: Rahlo oblačno 823 m
Oblačno 1219 m
2019/01/23 06:30 LJPZ 230630Z VRB01KT 9999 FEW027 OVC040 01/M01 Q0998
LJCE - Cerklje, Slovenia
Oddaljenost od postaje: ESE 49km
Podatki zajeti: 23/01/2019 07:30
Oblačno
Oblačno
 Veter iz smeri E
Veter: E 7 km/h
Temperatura: -3°C
Občutek mraza zaradi vetra: -6°C
Rosišče: -5°C
Vlažnost: 86%
Tlak: 1002 hPa
Oblačnost: Oblačno
Vidljivost: 6 km
Podrobnosti o oblakih: Oblačno 518 m
2019/01/23 06:30 LJCE 230630Z 09004KT 6000 OVC017 M03/M05 Q1002 RMK WHT
 
LDZA - Zagreb/Pleso, Croatia
Oddaljenost od postaje: ESE 96km
Podatki zajeti: 23/01/2019 07:30
Meglica, Oblačno
Meglica, Oblačno
 Veter iz smeri E
Veter: E 4 km/h
Temperatura: -3°C
Rosišče: -5°C
Vlažnost: 86%
Tlak: 1002 hPa
Stanje: Meglica
Oblačnost: Oblačno
Vidljivost: 4 km
Podrobnosti o oblakih: Oblačno 488 m
2019/01/23 06:30 LDZA 230630Z 08002KT 4000 BR OVC016 M03/M05 Q1002 R05/CLRD// NOSIG
LDRI - Rijeka/Omisalj, Croatia
Oddaljenost od postaje: SSW 109km
Podatki zajeti: 23/01/2019 07:30
Oblačno
Oblačno
 Veter iz smeri NNE
Veter: NNE 9 km/h
Temperatura: 2°C
Občutek mraza zaradi vetra: -1°C
Rosišče: -5°C
Vlažnost: 60%
Tlak: 999 hPa
Oblačnost: Oblačno
Vidljivost: 10 km
Podrobnosti o oblakih: Oblačno 1524 m
2019/01/23 06:30 LDRI 230630Z 03005KT 9999 OVC050 02/M05 Q0999
 
LDPL - Pula, Croatia
Oddaljenost od postaje: SSW 164km
Podatki zajeti: 23/01/2019 07:30
Pretežno oblačno
Pretežno oblačno
 Veter iz smeri ENE
Veter: ENE 15 km/h
Temperatura: 2°C
Občutek mraza zaradi vetra: -2°C
Rosišče: 0°C
Vlažnost: 87%
Tlak: 998 hPa
Oblačnost: Pretežno oblačno
Vidljivost: 10 km
Podrobnosti o oblakih: Delno oblačno 914 m
Pretežno oblačno 1372 m
2019/01/23 06:30 LDPL 230630Z 06008KT 9999 SCT030 BKN045 02/M00 Q0998 NOSIG
LOWK - Klagenfurt(Civ/M, Austria
Oddaljenost od postaje: NW 76km
Podatki zajeti: 23/01/2019 07:20
Meglica, Pretežno oblačno
Meglica, Pretežno oblačno
 Veter iz smeri E
Veter: E 6 km/h
Temperatura: -4°C
Rosišče: -6°C
Vlažnost: 86%
Tlak: 1000 hPa
Stanje: Meglica
Oblačnost: Pretežno oblačno
Vidljivost: 5 km
Podrobnosti o oblakih: Delno oblačno 366 m
Pretežno oblačno 1036 m
Pretežno oblačno 1676 m
2019/01/23 06:20 LOWK 230620Z 08003KT 050V120 4500 BR SCT012 BKN034 BKN055 M04/M06 Q1000 R10L/490295 BECMG 9999 NSW
 
LOWG - Graz (mil/Civ), Austria
Oddaljenost od postaje: NNE 100km
Podatki zajeti: 23/01/2019 07:20
Rahel sneg, Meglica, Oblačno
Rahel sneg, Meglica, Oblačno
 Veter iz smeri E
Veter: E 4 km/h
Temperatura: -5°C
Rosišče: -6°C
Vlažnost: 93%
Tlak: 1001 hPa
Stanje: Rahel sneg, Meglica
Oblačnost: Oblačno
Vidljivost: 3 km
Podrobnosti o oblakih: Delno oblačno 91 m
Delno oblačno 366 m
Oblačno 610 m
2019/01/23 06:20 LOWG 230620Z 09002KT 2500 -SN BR SCT003 SCT012 OVC020 M05/M06 Q1001 R17/490195 TEMPO 4000
LOWZ - Zell Am See, Austria
Oddaljenost od postaje: NW 211km
Podatki zajeti: 31/12/2016 17:00
Ni posodobljen
Jasno
Jasno
 Veter iz smeri spremenljiv
Veter: spremenljiv 4 km/h
Temperatura: -4°C
Rosišče: -7°C
Vlažnost: 80%
Tlak: 1031 hPa
Oblačnost: Jasno
2016/12/31 16:00 LOWZ 311600Z VRB02KT 50KM SKC M04/M07 Q1031
 
LOAN - Wr.neustadt East, Austria
Oddaljenost od postaje: NNE 212km
Podatki zajeti: 22/01/2019 17:00
Ni posodobljen
Megla ki zmrzuje, Oblačno
Megla ki zmrzuje, Oblačno
 Veter iz smeri ESE
Veter: ESE 6 km/h
Stanje: Megla ki zmrzuje
Oblačnost: Oblačno
Vidljivost: 0 km
Podrobnosti o oblakih: Oblačno 122 m
2019/01/22 16:00 LOAN 221600Z 12003KT 0300 FZFG VV004
LIPQ - Ronchi Legionari, Italy
Oddaljenost od postaje: SW 35km
Podatki zajeti: 23/01/2019 07:20
Pretežno oblačno
Pretežno oblačno
 Veter iz smeri E
Veter: E 17 km/h
Temperatura: 1°C
Občutek mraza zaradi vetra: -3°C
Rosišče: -3°C
Vlažnost: 75%
Tlak: 999 hPa
Oblačnost: Pretežno oblačno
Vidljivost: 10 km
Podrobnosti o oblakih: Rahlo oblačno 610 m
Pretežno oblačno 1219 m
2019/01/23 06:20 LIPQ 230620Z 10009KT 9999 FEW020 BKN040 01/M03 Q0999
 
LIVT - Trieste, Italy
Oddaljenost od postaje: WSW 109km
Podatki zajeti: 23/01/2019 06:55

 Veter iz smeri NE
Veter: NE 24 km/h, Sunek vetra: 44 km/h
Vidljivost: 5 km
2019/01/23 05:55 LIVT 230555Z 04013G24KT 5000 - SN SCT020 01/M03 Q0998 RMK OVC OVC070 QUK / QUL / VIS MAR 5 KM VIS MIN 5000
LIVO - Tarvisio, Italy
Oddaljenost od postaje: NNW 49km
Podatki zajeti: 23/01/2019 06:55
Oblačno
Oblačno
 Veter iz smeri SE
Veter: SE 2 km/h
Temperatura: -6°C
Rosišče: -8°C
Vlažnost: 86%
Tlak: 997 hPa
Oblačnost: Oblačno
Vidljivost: 6 km
Podrobnosti o oblakih: Oblačno 305 m
2019/01/23 05:55 LIVO 230555Z 14001KT 6000 OVC010 M06/M08 Q0997 RMK OVC VIS MIN 6000
 
LIPZ - Venezia/Tessera, Italy
Oddaljenost od postaje: WSW 217km
Podatki zajeti: 23/01/2019 07:20
Pretežno oblačno
Pretežno oblačno
 Veter iz smeri NNW
Veter: NNW 13 km/h
Temperatura: 0°C
Občutek mraza zaradi vetra: -4°C
Rosišče: -1°C
Vlažnost: 93%
Tlak: 999 hPa
Oblačnost: Pretežno oblačno
Vidljivost: 10 km
Podrobnosti o oblakih: Delno oblačno 1829 m
Pretežno oblačno 2134 m
2019/01/23 06:20 LIPZ 230620Z 33007KT 9999 SCT060 BKN070 00/M01 Q0999 R04R/2/0095 NOSIG
LHSM - Balaton, Hungary
Oddaljenost od postaje: ENE 177km
Podatki zajeti: 23/01/2019 07:15
Light freezing, Rosi, Oblačno
Light freezing, Rosi, Oblačno
 Veter iz smeri NW
Veter: NW 11 km/h
Temperatura: -4°C
Občutek mraza zaradi vetra: -8°C
Rosišče: -4°C
Vlažnost: 100%
Tlak: 1002 hPa
Stanje: Light freezing, Rosi
Oblačnost: Oblačno
Vidljivost: 2 km
Podrobnosti o oblakih: Oblačno 396 m
2019/01/23 06:15 LHSM 230615Z 32006KT 2200 -FZDZ OVC013 M04/M04 Q1002